KCCR/CCR METAR and TAF weather

Enter ICAO airport designator
Station Type Date Time Source
KCCR METAR 2018/04/26 15:07 UTC NOAA

KCCR 261507Z 25009KT 10SM SCT017 12/07 A3003 RMK AO2 T01220072


Station Type Date Time Source
KCCR Decoded METAR 2018/04/26 15:07 UTC NOAA

CONCORD BUCHANAN FIELD, CA, United States (KCCR) 38-00N 122-03W 11M
Apr 26, 2018 - 11:07 AM EDT / 2018.04.26 1507 UTC
Wind: from the WSW (250 degrees) at 10 MPH (9 KT):0
Visibility: 10 mile(s):0
Sky conditions: partly cloudy
Temperature: 54.0 F (12.2 C)
Dew Point: 45.0 F (7.2 C)
Relative Humidity: 71%
Pressure (altimeter): 30.03 in. Hg (1016 hPa)
ob: KCCR 261507Z 25009KT 10SM SCT017 12/07 A3003 RMK AO2 T01220072
cycle: 15

Station Type Date Time Source
KCCR TAF 2016/02/08 18:39 UTC NOAA

TAF KCCR 081738Z 0818/0918 07006KT P6SM SKC
FM082000 06010KT P6SM SKC
FM090000 06005KT P6SM SKC
FM090600 VRB03KT P6SM SKC


Example: see airport list